sensor_id;sensor_type;location;lat;lon;timestamp;P1;durP1;ratioP1;P2;durP2;ratioP2
41966;SDS011;27656;53.068;8.818;2024-03-23T00:53:11;23.03;;;4.10;;
41966;SDS011;27656;53.068;8.818;2024-03-23T00:55:38;21.93;;;4.50;;
41966;SDS011;27656;53.068;8.818;2024-03-23T00:58:03;20.73;;;4.37;;
41966;SDS011;27656;53.068;8.818;2024-03-23T01:00:29;20.30;;;4.27;;
41966;SDS011;27656;53.068;8.818;2024-03-23T01:02:54;22.10;;;4.37;;
41966;SDS011;27656;53.068;8.818;2024-03-23T01:05:20;23.70;;;4.47;;
41966;SDS011;27656;53.068;8.818;2024-03-23T01:07:45;20.33;;;4.33;;
41966;SDS011;27656;53.068;8.818;2024-03-23T01:10:11;17.07;;;3.87;;
41966;SDS011;27656;53.068;8.818;2024-03-23T01:12:37;21.30;;;4.60;;
41966;SDS011;27656;53.068;8.818;2024-03-23T01:15:02;20.20;;;4.07;;
41966;SDS011;27656;53.068;8.818;2024-03-23T01:17:28;25.30;;;4.43;;
41966;SDS011;27656;53.068;8.818;2024-03-23T01:19:53;15.97;;;3.97;;
41966;SDS011;27656;53.068;8.818;2024-03-23T01:22:19;23.40;;;4.10;;
41966;SDS011;27656;53.068;8.818;2024-03-23T01:24:44;19.80;;;4.10;;
41966;SDS011;27656;53.068;8.818;2024-03-23T01:27:10;25.53;;;4.53;;
41966;SDS011;27656;53.068;8.818;2024-03-23T01:29:35;20.10;;;3.77;;
41966;SDS011;27656;53.068;8.818;2024-03-23T01:32:01;20.00;;;4.63;;
41966;SDS011;27656;53.068;8.818;2024-03-23T01:34:27;17.40;;;4.17;;
41966;SDS011;27656;53.068;8.818;2024-03-23T01:36:53;23.80;;;5.00;;
41966;SDS011;27656;53.068;8.818;2024-03-23T01:39:18;20.30;;;4.43;;
41966;SDS011;27656;53.068;8.818;2024-03-23T01:41:44;29.10;;;4.13;;
41966;SDS011;27656;53.068;8.818;2024-03-23T01:44:09;22.40;;;4.30;;
41966;SDS011;27656;53.068;8.818;2024-03-23T01:46:36;22.07;;;4.40;;
41966;SDS011;27656;53.068;8.818;2024-03-23T01:49:03;19.37;;;3.90;;
41966;SDS011;27656;53.068;8.818;2024-03-23T01:51:32;28.03;;;4.33;;
41966;SDS011;27656;53.068;8.818;2024-03-23T01:53:58;24.73;;;5.07;;
41966;SDS011;27656;53.068;8.818;2024-03-23T01:56:28;22.23;;;4.50;;
41966;SDS011;27656;53.068;8.818;2024-03-23T01:59:01;22.70;;;4.23;;
41966;SDS011;27656;53.068;8.818;2024-03-23T02:01:27;24.20;;;4.53;;
41966;SDS011;27656;53.068;8.818;2024-03-23T02:03:52;13.30;;;3.43;;
41966;SDS011;27656;53.068;8.818;2024-03-23T02:06:18;23.70;;;4.00;;
41966;SDS011;27656;53.068;8.818;2024-03-23T02:08:43;21.37;;;4.00;;
41966;SDS011;27656;53.068;8.818;2024-03-23T02:11:09;20.90;;;4.60;;
41966;SDS011;27656;53.068;8.818;2024-03-23T02:13:35;20.33;;;4.47;;
41966;SDS011;27656;53.068;8.818;2024-03-23T02:16:00;22.17;;;4.37;;
41966;SDS011;27656;53.068;8.818;2024-03-23T02:18:26;20.80;;;4.30;;
41966;SDS011;27656;53.068;8.818;2024-03-23T02:20:51;22.33;;;3.73;;
41966;SDS011;27656;53.068;8.818;2024-03-23T02:23:17;20.57;;;4.73;;
41966;SDS011;27656;53.068;8.818;2024-03-23T02:25:43;20.80;;;4.37;;
41966;SDS011;27656;53.068;8.818;2024-03-23T02:28:09;18.90;;;4.57;;
41966;SDS011;27656;53.068;8.818;2024-03-23T02:30:34;18.03;;;3.90;;
41966;SDS011;27656;53.068;8.818;2024-03-23T02:33:00;23.67;;;5.23;;
41966;SDS011;27656;53.068;8.818;2024-03-23T02:35:26;26.60;;;4.57;;
41966;SDS011;27656;53.068;8.818;2024-03-23T02:37:52;17.10;;;3.87;;
41966;SDS011;27656;53.068;8.818;2024-03-23T02:40:19;17.97;;;3.93;;
41966;SDS011;27656;53.068;8.818;2024-03-23T02:42:45;18.93;;;4.00;;
41966;SDS011;27656;53.068;8.818;2024-03-23T02:45:11;18.77;;;3.97;;
41966;SDS011;27656;53.068;8.818;2024-03-23T02:47:37;19.17;;;3.93;;
41966;SDS011;27656;53.068;8.818;2024-03-23T02:50:02;22.07;;;3.50;;
41966;SDS011;27656;53.068;8.818;2024-03-23T02:52:29;16.40;;;3.73;;
41966;SDS011;27656;53.068;8.818;2024-03-23T02:54:55;16.97;;;3.47;;
41966;SDS011;27656;53.068;8.818;2024-03-23T02:57:20;23.37;;;3.57;;
41966;SDS011;27656;53.068;8.818;2024-03-23T02:59:46;20.43;;;3.90;;
41966;SDS011;27656;53.068;8.818;2024-03-23T03:02:13;18.90;;;3.67;;
41966;SDS011;27656;53.068;8.818;2024-03-23T03:04:39;23.60;;;3.87;;
41966;SDS011;27656;53.068;8.818;2024-03-23T03:07:04;22.07;;;4.23;;
41966;SDS011;27656;53.068;8.818;2024-03-23T03:09:30;22.77;;;3.87;;
41966;SDS011;27656;53.068;8.818;2024-03-23T03:11:56;22.10;;;4.13;;
41966;SDS011;27656;53.068;8.818;2024-03-23T03:14:21;18.77;;;4.17;;
41966;SDS011;27656;53.068;8.818;2024-03-23T03:16:47;26.73;;;4.10;;
41966;SDS011;27656;53.068;8.818;2024-03-23T03:19:13;18.20;;;4.47;;
41966;SDS011;27656;53.068;8.818;2024-03-23T03:21:38;20.93;;;3.63;;
41966;SDS011;27656;53.068;8.818;2024-03-23T03:24:05;18.63;;;3.73;;
41966;SDS011;27656;53.068;8.818;2024-03-23T03:26:31;14.70;;;3.17;;
41966;SDS011;27656;53.068;8.818;2024-03-23T03:28:57;25.10;;;4.90;;
41966;SDS011;27656;53.068;8.818;2024-03-23T03:31:23;26.13;;;4.57;;
41966;SDS011;27656;53.068;8.818;2024-03-23T03:33:49;16.80;;;3.97;;
41966;SDS011;27656;53.068;8.818;2024-03-23T03:36:16;21.83;;;3.97;;
41966;SDS011;27656;53.068;8.818;2024-03-23T03:38:41;20.53;;;4.17;;
41966;SDS011;27656;53.068;8.818;2024-03-23T03:41:07;19.20;;;4.20;;
41966;SDS011;27656;53.068;8.818;2024-03-23T03:43:32;31.07;;;4.80;;
41966;SDS011;27656;53.068;8.818;2024-03-23T03:45:59;27.97;;;4.03;;
41966;SDS011;27656;53.068;8.818;2024-03-23T03:48:25;17.10;;;4.00;;
41966;SDS011;27656;53.068;8.818;2024-03-23T03:50:52;24.93;;;4.63;;
41966;SDS011;27656;53.068;8.818;2024-03-23T03:53:18;14.33;;;3.87;;
41966;SDS011;27656;53.068;8.818;2024-03-23T03:55:44;19.00;;;3.70;;
41966;SDS011;27656;53.068;8.818;2024-03-23T03:58:09;16.77;;;4.23;;
41966;SDS011;27656;53.068;8.818;2024-03-23T04:00:35;23.53;;;4.50;;
41966;SDS011;27656;53.068;8.818;2024-03-23T04:03:01;19.93;;;3.80;;
41966;SDS011;27656;53.068;8.818;2024-03-23T04:05:26;24.13;;;4.70;;
41966;SDS011;27656;53.068;8.818;2024-03-23T04:07:52;23.57;;;4.13;;
41966;SDS011;27656;53.068;8.818;2024-03-23T04:10:18;22.10;;;4.63;;
41966;SDS011;27656;53.068;8.818;2024-03-23T04:12:43;21.13;;;4.90;;
41966;SDS011;27656;53.068;8.818;2024-03-23T04:15:10;16.90;;;4.33;;
41966;SDS011;27656;53.068;8.818;2024-03-23T04:17:35;18.10;;;4.17;;
41966;SDS011;27656;53.068;8.818;2024-03-23T04:20:02;25.67;;;4.53;;
41966;SDS011;27656;53.068;8.818;2024-03-23T04:22:29;18.43;;;3.77;;
41966;SDS011;27656;53.068;8.818;2024-03-23T04:24:55;26.50;;;4.70;;
41966;SDS011;27656;53.068;8.818;2024-03-23T04:27:22;20.13;;;4.07;;
41966;SDS011;27656;53.068;8.818;2024-03-23T04:29:51;17.43;;;3.93;;
41966;SDS011;27656;53.068;8.818;2024-03-23T04:32:20;28.83;;;4.97;;
41966;SDS011;27656;53.068;8.818;2024-03-23T04:34:45;30.93;;;5.80;;
41966;SDS011;27656;53.068;8.818;2024-03-23T04:37:11;15.30;;;4.17;;
41966;SDS011;27656;53.068;8.818;2024-03-23T04:39:37;23.00;;;4.77;;
41966;SDS011;27656;53.068;8.818;2024-03-23T04:42:03;19.57;;;3.70;;
41966;SDS011;27656;53.068;8.818;2024-03-23T04:44:29;21.33;;;4.60;;
41966;SDS011;27656;53.068;8.818;2024-03-23T04:46:56;23.80;;;4.07;;
41966;SDS011;27656;53.068;8.818;2024-03-23T04:49:22;22.97;;;5.07;;
41966;SDS011;27656;53.068;8.818;2024-03-23T04:51:48;19.87;;;4.97;;
41966;SDS011;27656;53.068;8.818;2024-03-23T04:54:13;18.67;;;4.23;;
41966;SDS011;27656;53.068;8.818;2024-03-23T04:56:39;27.10;;;7.30;;
41966;SDS011;27656;53.068;8.818;2024-03-23T04:59:04;25.50;;;5.07;;
41966;SDS011;27656;53.068;8.818;2024-03-23T05:01:30;25.07;;;4.40;;
41966;SDS011;27656;53.068;8.818;2024-03-23T05:03:59;21.47;;;4.53;;
41966;SDS011;27656;53.068;8.818;2024-03-23T05:06:25;24.03;;;4.37;;
41966;SDS011;27656;53.068;8.818;2024-03-23T05:08:51;20.60;;;3.70;;
41966;SDS011;27656;53.068;8.818;2024-03-23T05:11:17;24.27;;;4.50;;
41966;SDS011;27656;53.068;8.818;2024-03-23T05:13:43;21.93;;;4.03;;
41966;SDS011;27656;53.068;8.818;2024-03-23T05:16:08;19.97;;;3.90;;
41966;SDS011;27656;53.068;8.818;2024-03-23T05:18:34;20.63;;;4.37;;
41966;SDS011;27656;53.068;8.818;2024-03-23T05:21:00;23.83;;;4.43;;
41966;SDS011;27656;53.068;8.818;2024-03-23T05:23:26;25.53;;;4.97;;
41966;SDS011;27656;53.068;8.818;2024-03-23T05:25:53;25.97;;;4.50;;
41966;SDS011;27656;53.068;8.818;2024-03-23T05:28:20;21.70;;;4.50;;
41966;SDS011;27656;53.068;8.818;2024-03-23T05:30:55;24.03;;;4.37;;
41966;SDS011;27656;53.068;8.818;2024-03-23T05:33:22;20.73;;;4.83;;
41966;SDS011;27656;53.068;8.818;2024-03-23T05:35:55;25.13;;;4.20;;
41966;SDS011;27656;53.068;8.818;2024-03-23T05:38:25;22.63;;;4.50;;
41966;SDS011;27656;53.068;8.818;2024-03-23T05:40:58;25.37;;;4.70;;
41966;SDS011;27656;53.068;8.818;2024-03-23T05:43:25;22.67;;;4.43;;
41966;SDS011;27656;53.068;8.818;2024-03-23T05:45:57;15.83;;;4.13;;
41966;SDS011;27656;53.068;8.818;2024-03-23T05:48:26;26.83;;;4.43;;
41966;SDS011;27656;53.068;8.818;2024-03-23T05:50:52;20.63;;;4.43;;
41966;SDS011;27656;53.068;8.818;2024-03-23T05:53:18;20.17;;;4.27;;
41966;SDS011;27656;53.068;8.818;2024-03-23T05:55:45;18.43;;;3.97;;
41966;SDS011;27656;53.068;8.818;2024-03-23T05:58:14;21.07;;;4.17;;
41966;SDS011;27656;53.068;8.818;2024-03-23T06:00:40;30.17;;;4.47;;
41966;SDS011;27656;53.068;8.818;2024-03-23T06:03:07;18.30;;;4.80;;
41966;SDS011;27656;53.068;8.818;2024-03-23T06:05:33;19.63;;;4.20;;
41966;SDS011;27656;53.068;8.818;2024-03-23T06:07:59;22.93;;;4.67;;
41966;SDS011;27656;53.068;8.818;2024-03-23T06:10:24;25.77;;;5.03;;
41966;SDS011;27656;53.068;8.818;2024-03-23T06:12:50;25.70;;;4.20;;
41966;SDS011;27656;53.068;8.818;2024-03-23T06:15:20;26.70;;;4.60;;
41966;SDS011;27656;53.068;8.818;2024-03-23T06:17:47;22.93;;;4.47;;
41966;SDS011;27656;53.068;8.818;2024-03-23T06:20:13;28.07;;;4.67;;
41966;SDS011;27656;53.068;8.818;2024-03-23T06:22:39;23.80;;;4.83;;
41966;SDS011;27656;53.068;8.818;2024-03-23T06:25:05;29.00;;;5.23;;
41966;SDS011;27656;53.068;8.818;2024-03-23T06:27:31;22.83;;;5.40;;
41966;SDS011;27656;53.068;8.818;2024-03-23T06:29:58;25.03;;;4.70;;
41966;SDS011;27656;53.068;8.818;2024-03-23T06:32:24;25.60;;;4.93;;
41966;SDS011;27656;53.068;8.818;2024-03-23T06:34:49;27.87;;;4.73;;
41966;SDS011;27656;53.068;8.818;2024-03-23T06:37:15;27.87;;;4.70;;
41966;SDS011;27656;53.068;8.818;2024-03-23T06:39:40;24.53;;;4.67;;
41966;SDS011;27656;53.068;8.818;2024-03-23T06:42:06;24.40;;;4.33;;
41966;SDS011;27656;53.068;8.818;2024-03-23T06:44:33;28.43;;;4.67;;
41966;SDS011;27656;53.068;8.818;2024-03-23T06:46:58;22.27;;;4.97;;
41966;SDS011;27656;53.068;8.818;2024-03-23T06:49:24;20.43;;;4.40;;
41966;SDS011;27656;53.068;8.818;2024-03-23T06:51:49;18.23;;;4.50;;
41966;SDS011;27656;53.068;8.818;2024-03-23T06:54:19;19.17;;;5.23;;
41966;SDS011;27656;53.068;8.818;2024-03-23T06:56:45;27.00;;;4.43;;
41966;SDS011;27656;53.068;8.818;2024-03-23T06:59:11;15.93;;;4.90;;
41966;SDS011;27656;53.068;8.818;2024-03-23T07:01:36;18.40;;;4.43;;
41966;SDS011;27656;53.068;8.818;2024-03-23T07:04:02;24.20;;;5.00;;
41966;SDS011;27656;53.068;8.818;2024-03-23T07:06:29;16.70;;;3.93;;
41966;SDS011;27656;53.068;8.818;2024-03-23T07:08:58;20.57;;;3.90;;
41966;SDS011;27656;53.068;8.818;2024-03-23T07:11:24;14.10;;;3.80;;
41966;SDS011;27656;53.068;8.818;2024-03-23T07:13:50;21.43;;;4.47;;
41966;SDS011;27656;53.068;8.818;2024-03-23T07:16:17;16.40;;;4.10;;
41966;SDS011;27656;53.068;8.818;2024-03-23T07:18:43;25.10;;;4.20;;
41966;SDS011;27656;53.068;8.818;2024-03-23T07:21:08;19.13;;;3.90;;
41966;SDS011;27656;53.068;8.818;2024-03-23T07:23:34;18.73;;;4.07;;
41966;SDS011;27656;53.068;8.818;2024-03-23T07:26:00;18.30;;;4.00;;
41966;SDS011;27656;53.068;8.818;2024-03-23T07:28:30;25.27;;;4.43;;
41966;SDS011;27656;53.068;8.818;2024-03-23T07:31:04;24.70;;;3.80;;
41966;SDS011;27656;53.068;8.818;2024-03-23T07:33:31;16.40;;;3.90;;
41966;SDS011;27656;53.068;8.818;2024-03-23T07:35:58;29.57;;;4.73;;
41966;SDS011;27656;53.068;8.818;2024-03-23T07:38:27;18.67;;;3.50;;
41966;SDS011;27656;53.068;8.818;2024-03-23T07:41:07;18.73;;;3.77;;
41966;SDS011;27656;53.068;8.818;2024-03-23T07:43:34;23.03;;;4.10;;
41966;SDS011;27656;53.068;8.818;2024-03-23T07:46:00;22.83;;;3.87;;
41966;SDS011;27656;53.068;8.818;2024-03-23T07:48:26;18.47;;;4.40;;
41966;SDS011;27656;53.068;8.818;2024-03-23T07:51:00;21.70;;;3.90;;
41966;SDS011;27656;53.068;8.818;2024-03-23T07:53:32;17.50;;;3.73;;
41966;SDS011;27656;53.068;8.818;2024-03-23T07:56:03;17.10;;;3.00;;
41966;SDS011;27656;53.068;8.818;2024-03-23T07:58:31;24.13;;;3.77;;
41966;SDS011;27656;53.068;8.818;2024-03-23T08:01:03;21.13;;;3.80;;
41966;SDS011;27656;53.068;8.818;2024-03-23T08:03:36;14.07;;;3.57;;
41966;SDS011;27656;53.068;8.818;2024-03-23T08:06:06;14.77;;;3.43;;
41966;SDS011;27656;53.068;8.818;2024-03-23T08:08:33;24.50;;;4.53;;
41966;SDS011;27656;53.068;8.818;2024-03-23T08:10:59;16.30;;;3.73;;
41966;SDS011;27656;53.068;8.818;2024-03-23T08:13:24;19.60;;;4.37;;
41966;SDS011;27656;53.068;8.818;2024-03-23T08:15:50;20.03;;;3.53;;
41966;SDS011;27656;53.068;8.818;2024-03-23T08:18:15;18.17;;;3.50;;
41966;SDS011;27656;53.068;8.818;2024-03-23T08:20:41;21.77;;;3.67;;
41966;SDS011;27656;53.068;8.818;2024-03-23T08:23:07;13.23;;;3.17;;
41966;SDS011;27656;53.068;8.818;2024-03-23T08:25:33;18.67;;;3.50;;
41966;SDS011;27656;53.068;8.818;2024-03-23T08:28:00;17.10;;;3.37;;
41966;SDS011;27656;53.068;8.818;2024-03-23T08:30:25;19.37;;;3.03;;
41966;SDS011;27656;53.068;8.818;2024-03-23T08:32:51;16.30;;;3.53;;
41966;SDS011;27656;53.068;8.818;2024-03-23T08:35:17;15.63;;;3.07;;
41966;SDS011;27656;53.068;8.818;2024-03-23T08:37:43;14.33;;;3.00;;
41966;SDS011;27656;53.068;8.818;2024-03-23T08:40:08;16.63;;;3.00;;
41966;SDS011;27656;53.068;8.818;2024-03-23T08:42:34;16.63;;;2.80;;
41966;SDS011;27656;53.068;8.818;2024-03-23T08:45:00;8.33;;;2.70;;
41966;SDS011;27656;53.068;8.818;2024-03-23T08:47:26;13.33;;;3.20;;
41966;SDS011;27656;53.068;8.818;2024-03-23T08:49:52;11.43;;;3.30;;
41966;SDS011;27656;53.068;8.818;2024-03-23T08:52:17;14.20;;;2.90;;
41966;SDS011;27656;53.068;8.818;2024-03-23T08:54:43;10.60;;;2.77;;
41966;SDS011;27656;53.068;8.818;2024-03-23T08:57:09;13.70;;;2.10;;
41966;SDS011;27656;53.068;8.818;2024-03-23T08:59:34;9.07;;;2.40;;
41966;SDS011;27656;53.068;8.818;2024-03-23T09:02:00;12.87;;;2.73;;
41966;SDS011;27656;53.068;8.818;2024-03-23T09:04:26;12.10;;;2.47;;
41966;SDS011;27656;53.068;8.818;2024-03-23T09:06:51;15.83;;;3.03;;
41966;SDS011;27656;53.068;8.818;2024-03-23T09:09:17;9.47;;;2.30;;
41966;SDS011;27656;53.068;8.818;2024-03-23T09:11:43;13.23;;;2.50;;
41966;SDS011;27656;53.068;8.818;2024-03-23T09:14:08;7.40;;;1.93;;
41966;SDS011;27656;53.068;8.818;2024-03-23T09:16:34;13.30;;;2.43;;
41966;SDS011;27656;53.068;8.818;2024-03-23T09:19:00;13.13;;;2.47;;
41966;SDS011;27656;53.068;8.818;2024-03-23T09:21:26;13.67;;;2.83;;
41966;SDS011;27656;53.068;8.818;2024-03-23T09:23:51;10.73;;;2.60;;
41966;SDS011;27656;53.068;8.818;2024-03-23T09:26:17;13.80;;;2.63;;
41966;SDS011;27656;53.068;8.818;2024-03-23T09:28:42;7.47;;;2.80;;
41966;SDS011;27656;53.068;8.818;2024-03-23T09:31:08;7.97;;;2.10;;
41966;SDS011;27656;53.068;8.818;2024-03-23T09:33:35;12.30;;;2.03;;
41966;SDS011;27656;53.068;8.818;2024-03-23T09:36:04;13.80;;;2.27;;
41966;SDS011;27656;53.068;8.818;2024-03-23T09:38:30;10.47;;;2.27;;
41966;SDS011;27656;53.068;8.818;2024-03-23T09:40:56;9.20;;;2.30;;
41966;SDS011;27656;53.068;8.818;2024-03-23T09:43:23;13.83;;;3.00;;
41966;SDS011;27656;53.068;8.818;2024-03-23T09:45:48;10.43;;;3.00;;
41966;SDS011;27656;53.068;8.818;2024-03-23T09:48:14;13.13;;;3.23;;
41966;SDS011;27656;53.068;8.818;2024-03-23T09:50:41;11.50;;;2.43;;
41966;SDS011;27656;53.068;8.818;2024-03-23T09:53:07;10.17;;;2.90;;
41966;SDS011;27656;53.068;8.818;2024-03-23T09:55:34;8.43;;;2.17;;
41966;SDS011;27656;53.068;8.818;2024-03-23T09:58:03;9.00;;;2.30;;
41966;SDS011;27656;53.068;8.818;2024-03-23T10:00:33;8.07;;;2.93;;
41966;SDS011;27656;53.068;8.818;2024-03-23T10:03:00;6.60;;;2.20;;
41966;SDS011;27656;53.068;8.818;2024-03-23T10:05:31;13.73;;;2.27;;
41966;SDS011;27656;53.068;8.818;2024-03-23T10:08:00;12.13;;;2.10;;
41966;SDS011;27656;53.068;8.818;2024-03-23T10:10:25;9.00;;;2.00;;
41966;SDS011;27656;53.068;8.818;2024-03-23T10:12:51;7.07;;;1.80;;
41966;SDS011;27656;53.068;8.818;2024-03-23T10:15:21;4.80;;;1.73;;
41966;SDS011;27656;53.068;8.818;2024-03-23T10:17:48;7.27;;;2.07;;
41966;SDS011;27656;53.068;8.818;2024-03-23T10:20:21;9.27;;;2.20;;
41966;SDS011;27656;53.068;8.818;2024-03-23T10:22:50;8.47;;;2.30;;
41966;SDS011;27656;53.068;8.818;2024-03-23T10:25:22;9.73;;;2.17;;
41966;SDS011;27656;53.068;8.818;2024-03-23T10:28:00;11.30;;;2.10;;
41966;SDS011;27656;53.068;8.818;2024-03-23T10:30:26;7.13;;;2.30;;
41966;SDS011;27656;53.068;8.818;2024-03-23T10:33:11;6.93;;;2.00;;
41966;SDS011;27656;53.068;8.818;2024-03-23T10:35:37;8.97;;;2.20;;
41966;SDS011;27656;53.068;8.818;2024-03-23T10:38:07;5.43;;;1.90;;
41966;SDS011;27656;53.068;8.818;2024-03-23T10:40:36;6.17;;;2.40;;
41966;SDS011;27656;53.068;8.818;2024-03-23T10:43:02;9.83;;;2.50;;
41966;SDS011;27656;53.068;8.818;2024-03-23T10:45:29;8.97;;;2.40;;
41966;SDS011;27656;53.068;8.818;2024-03-23T10:47:55;5.37;;;2.00;;
41966;SDS011;27656;53.068;8.818;2024-03-23T10:50:21;8.50;;;1.80;;
41966;SDS011;27656;53.068;8.818;2024-03-23T10:52:47;7.17;;;1.80;;
41966;SDS011;27656;53.068;8.818;2024-03-23T10:55:14;9.93;;;2.20;;
41966;SDS011;27656;53.068;8.818;2024-03-23T10:57:47;8.23;;;1.87;;
41966;SDS011;27656;53.068;8.818;2024-03-23T11:00:16;5.87;;;1.67;;
41966;SDS011;27656;53.068;8.818;2024-03-23T11:02:42;5.57;;;1.90;;
41966;SDS011;27656;53.068;8.818;2024-03-23T11:07:52;9.33;;;2.37;;
41966;SDS011;27656;53.068;8.818;2024-03-23T11:10:28;8.23;;;2.07;;
41966;SDS011;27656;53.068;8.818;2024-03-23T11:12:56;7.00;;;2.27;;
41966;SDS011;27656;53.068;8.818;2024-03-23T11:15:22;7.73;;;1.87;;
41966;SDS011;27656;53.068;8.818;2024-03-23T11:18:08;8.60;;;2.07;;
41966;SDS011;27656;53.068;8.818;2024-03-23T11:20:34;9.20;;;1.63;;
41966;SDS011;27656;53.068;8.818;2024-03-23T11:23:00;6.77;;;1.73;;
41966;SDS011;27656;53.068;8.818;2024-03-23T11:25:26;5.13;;;1.87;;
41966;SDS011;27656;53.068;8.818;2024-03-23T11:27:53;8.10;;;1.90;;
41966;SDS011;27656;53.068;8.818;2024-03-23T11:30:24;10.27;;;1.80;;
41966;SDS011;27656;53.068;8.818;2024-03-23T11:32:51;6.00;;;1.60;;
41966;SDS011;27656;53.068;8.818;2024-03-23T11:35:26;5.67;;;1.63;;
41966;SDS011;27656;53.068;8.818;2024-03-23T11:40:31;7.17;;;1.70;;
41966;SDS011;27656;53.068;8.818;2024-03-23T11:43:02;7.57;;;1.90;;
41966;SDS011;27656;53.068;8.818;2024-03-23T11:45:29;6.33;;;1.80;;
41966;SDS011;27656;53.068;8.818;2024-03-23T11:50:29;6.97;;;2.03;;
41966;SDS011;27656;53.068;8.818;2024-03-23T11:53:05;5.03;;;1.67;;
41966;SDS011;27656;53.068;8.818;2024-03-23T11:55:41;5.93;;;1.37;;
41966;SDS011;27656;53.068;8.818;2024-03-23T11:58:08;7.53;;;1.70;;
41966;SDS011;27656;53.068;8.818;2024-03-23T12:00:34;6.70;;;1.60;;
41966;SDS011;27656;53.068;8.818;2024-03-23T12:03:03;7.30;;;1.97;;
41966;SDS011;27656;53.068;8.818;2024-03-23T12:05:29;6.00;;;1.43;;
41966;SDS011;27656;53.068;8.818;2024-03-23T12:07:55;4.60;;;1.70;;
41966;SDS011;27656;53.068;8.818;2024-03-23T12:10:40;8.43;;;1.57;;
41966;SDS011;27656;53.068;8.818;2024-03-23T12:13:06;5.40;;;1.73;;
41966;SDS011;27656;53.068;8.818;2024-03-23T12:15:32;6.07;;;1.77;;
41966;SDS011;27656;53.068;8.818;2024-03-23T12:18:07;5.23;;;1.50;;
41966;SDS011;27656;53.068;8.818;2024-03-23T12:20:34;3.00;;;1.00;;
41966;SDS011;27656;53.068;8.818;2024-03-23T12:23:06;3.33;;;1.10;;
41966;SDS011;27656;53.068;8.818;2024-03-23T12:25:37;4.73;;;1.20;;
41966;SDS011;27656;53.068;8.818;2024-03-23T12:28:03;2.53;;;1.30;;
41966;SDS011;27656;53.068;8.818;2024-03-23T12:30:40;1.93;;;0.93;;
41966;SDS011;27656;53.068;8.818;2024-03-23T12:33:06;4.20;;;0.90;;
41966;SDS011;27656;53.068;8.818;2024-03-23T12:35:32;2.70;;;0.90;;
41966;SDS011;27656;53.068;8.818;2024-03-23T12:37:58;3.17;;;1.00;;
41966;SDS011;27656;53.068;8.818;2024-03-23T12:40:24;3.77;;;1.10;;
41966;SDS011;27656;53.068;8.818;2024-03-23T12:42:50;1.03;;;0.77;;
41966;SDS011;27656;53.068;8.818;2024-03-23T12:45:16;2.53;;;0.73;;
41966;SDS011;27656;53.068;8.818;2024-03-23T12:47:41;0.87;;;0.73;;
41966;SDS011;27656;53.068;8.818;2024-03-23T12:50:07;4.47;;;0.90;;
41966;SDS011;27656;53.068;8.818;2024-03-23T12:52:33;3.37;;;0.90;;
41966;SDS011;27656;53.068;8.818;2024-03-23T12:54:58;1.97;;;0.63;;
41966;SDS011;27656;53.068;8.818;2024-03-23T12:57:24;1.77;;;0.73;;
41966;SDS011;27656;53.068;8.818;2024-03-23T12:59:51;3.20;;;0.90;;
41966;SDS011;27656;53.068;8.818;2024-03-23T13:02:19;1.37;;;0.60;;
41966;SDS011;27656;53.068;8.818;2024-03-23T13:04:45;1.80;;;0.80;;
41966;SDS011;27656;53.068;8.818;2024-03-23T13:07:18;3.37;;;0.80;;
41966;SDS011;27656;53.068;8.818;2024-03-23T13:09:44;3.13;;;0.87;;
41966;SDS011;27656;53.068;8.818;2024-03-23T13:12:10;3.73;;;1.27;;
41966;SDS011;27656;53.068;8.818;2024-03-23T13:14:39;3.03;;;0.77;;
41966;SDS011;27656;53.068;8.818;2024-03-23T13:17:05;3.57;;;1.00;;
41966;SDS011;27656;53.068;8.818;2024-03-23T13:19:31;2.40;;;1.10;;
41966;SDS011;27656;53.068;8.818;2024-03-23T13:21:58;4.47;;;1.03;;
41966;SDS011;27656;53.068;8.818;2024-03-23T13:24:24;4.13;;;0.90;;
41966;SDS011;27656;53.068;8.818;2024-03-23T13:26:53;2.13;;;0.80;;
41966;SDS011;27656;53.068;8.818;2024-03-23T13:29:19;4.47;;;1.50;;
41966;SDS011;27656;53.068;8.818;2024-03-23T13:31:45;3.63;;;1.10;;
41966;SDS011;27656;53.068;8.818;2024-03-23T13:34:12;6.37;;;1.00;;
41966;SDS011;27656;53.068;8.818;2024-03-23T13:36:41;4.90;;;1.63;;
41966;SDS011;27656;53.068;8.818;2024-03-23T13:39:07;7.97;;;1.47;;
41966;SDS011;27656;53.068;8.818;2024-03-23T13:41:39;6.17;;;1.43;;
41966;SDS011;27656;53.068;8.818;2024-03-23T13:44:06;6.27;;;1.70;;
41966;SDS011;27656;53.068;8.818;2024-03-23T13:46:41;3.43;;;1.33;;
41966;SDS011;27656;53.068;8.818;2024-03-23T13:49:28;5.70;;;1.20;;
41966;SDS011;27656;53.068;8.818;2024-03-23T13:51:56;3.60;;;1.10;;
41966;SDS011;27656;53.068;8.818;2024-03-23T13:54:23;2.70;;;1.20;;
41966;SDS011;27656;53.068;8.818;2024-03-23T13:56:50;4.60;;;1.10;;
41966;SDS011;27656;53.068;8.818;2024-03-23T13:59:16;5.13;;;1.33;;
41966;SDS011;27656;53.068;8.818;2024-03-23T14:01:42;4.50;;;1.23;;
41966;SDS011;27656;53.068;8.818;2024-03-23T14:04:09;3.07;;;1.30;;
41966;SDS011;27656;53.068;8.818;2024-03-23T14:06:35;4.27;;;1.40;;
41966;SDS011;27656;53.068;8.818;2024-03-23T14:09:00;4.23;;;1.20;;
41966;SDS011;27656;53.068;8.818;2024-03-23T14:11:26;6.70;;;1.83;;
41966;SDS011;27656;53.068;8.818;2024-03-23T14:13:52;6.20;;;1.70;;
41966;SDS011;27656;53.068;8.818;2024-03-23T14:16:18;1.77;;;1.23;;
41966;SDS011;27656;53.068;8.818;2024-03-23T14:18:46;5.07;;;1.23;;
41966;SDS011;27656;53.068;8.818;2024-03-23T14:21:11;4.10;;;1.60;;
41966;SDS011;27656;53.068;8.818;2024-03-23T14:23:37;4.07;;;1.10;;
41966;SDS011;27656;53.068;8.818;2024-03-23T14:26:03;4.33;;;1.20;;
41966;SDS011;27656;53.068;8.818;2024-03-23T14:28:29;5.30;;;1.13;;
41966;SDS011;27656;53.068;8.818;2024-03-23T14:30:55;4.40;;;1.53;;
41966;SDS011;27656;53.068;8.818;2024-03-23T14:33:21;5.60;;;1.43;;
41966;SDS011;27656;53.068;8.818;2024-03-23T14:35:53;4.23;;;1.17;;
41966;SDS011;27656;53.068;8.818;2024-03-23T14:38:20;4.97;;;1.40;;
41966;SDS011;27656;53.068;8.818;2024-03-23T14:40:46;4.90;;;1.37;;
41966;SDS011;27656;53.068;8.818;2024-03-23T14:43:12;4.10;;;1.40;;
41966;SDS011;27656;53.068;8.818;2024-03-23T14:48:34;5.57;;;1.43;;
41966;SDS011;27656;53.068;8.818;2024-03-23T14:51:01;2.33;;;1.10;;
41966;SDS011;27656;53.068;8.818;2024-03-23T14:53:34;4.87;;;1.30;;
41966;SDS011;27656;53.068;8.818;2024-03-23T14:56:01;5.07;;;1.20;;
41966;SDS011;27656;53.068;8.818;2024-03-23T14:58:28;2.70;;;1.10;;
41966;SDS011;27656;53.068;8.818;2024-03-23T15:01:04;7.10;;;1.30;;
41966;SDS011;27656;53.068;8.818;2024-03-23T15:03:34;3.20;;;1.03;;
41966;SDS011;27656;53.068;8.818;2024-03-23T15:05:59;2.63;;;0.87;;
41966;SDS011;27656;53.068;8.818;2024-03-23T15:08:26;2.77;;;1.10;;
41966;SDS011;27656;53.068;8.818;2024-03-23T15:10:55;4.53;;;1.20;;
41966;SDS011;27656;53.068;8.818;2024-03-23T15:13:24;4.13;;;1.10;;
41966;SDS011;27656;53.068;8.818;2024-03-23T15:15:52;3.47;;;0.83;;
41966;SDS011;27656;53.068;8.818;2024-03-23T15:18:18;4.97;;;1.07;;
41966;SDS011;27656;53.068;8.818;2024-03-23T15:20:57;3.00;;;0.93;;
41966;SDS011;27656;53.068;8.818;2024-03-23T15:23:27;4.60;;;1.27;;
41966;SDS011;27656;53.068;8.818;2024-03-23T15:25:57;3.03;;;1.23;;
41966;SDS011;27656;53.068;8.818;2024-03-23T15:28:24;5.60;;;1.20;;
41966;SDS011;27656;53.068;8.818;2024-03-23T15:30:52;2.47;;;1.10;;
41966;SDS011;27656;53.068;8.818;2024-03-23T15:33:18;3.53;;;1.40;;
41966;SDS011;27656;53.068;8.818;2024-03-23T15:35:44;5.17;;;1.23;;
41966;SDS011;27656;53.068;8.818;2024-03-23T15:38:09;6.13;;;1.23;;
41966;SDS011;27656;53.068;8.818;2024-03-23T15:40:35;7.33;;;1.20;;
41966;SDS011;27656;53.068;8.818;2024-03-23T15:43:01;7.43;;;1.30;;